sensor_id;sensor_type;location;lat;lon;timestamp;temperature;humidity
22666;DHT22;11499;49.486;11.104;2022-12-07T00:00:09;3.30;99.90
22666;DHT22;11499;49.486;11.104;2022-12-07T00:05:17;3.40;99.90
22666;DHT22;11499;49.486;11.104;2022-12-07T00:07:42;3.40;99.90
22666;DHT22;11499;49.486;11.104;2022-12-07T00:10:08;3.40;99.90
22666;DHT22;11499;49.486;11.104;2022-12-07T00:12:33;3.50;99.90
22666;DHT22;11499;49.486;11.104;2022-12-07T00:14:59;3.30;99.90
22666;DHT22;11499;49.486;11.104;2022-12-07T00:17:24;3.30;99.90
22666;DHT22;11499;49.486;11.104;2022-12-07T00:19:50;3.40;99.90
22666;DHT22;11499;49.486;11.104;2022-12-07T00:22:15;3.30;99.90
22666;DHT22;11499;49.486;11.104;2022-12-07T00:24:41;3.30;99.90
22666;DHT22;11499;49.486;11.104;2022-12-07T00:27:06;3.30;99.90
22666;DHT22;11499;49.486;11.104;2022-12-07T00:32:32;3.30;99.90
22666;DHT22;11499;49.486;11.104;2022-12-07T00:34:58;3.20;99.90
22666;DHT22;11499;49.486;11.104;2022-12-07T00:37:23;3.20;99.90
22666;DHT22;11499;49.486;11.104;2022-12-07T00:39:49;3.20;99.90
22666;DHT22;11499;49.486;11.104;2022-12-07T00:42:14;3.10;99.90
22666;DHT22;11499;49.486;11.104;2022-12-07T00:44:40;3.10;99.90
22666;DHT22;11499;49.486;11.104;2022-12-07T00:47:05;3.10;99.90
22666;DHT22;11499;49.486;11.104;2022-12-07T00:49:31;3.10;99.90
22666;DHT22;11499;49.486;11.104;2022-12-07T00:51:56;3.00;99.90
22666;DHT22;11499;49.486;11.104;2022-12-07T00:54:22;3.10;99.90
22666;DHT22;11499;49.486;11.104;2022-12-07T00:59:48;3.00;99.90
22666;DHT22;11499;49.486;11.104;2022-12-07T01:02:13;3.00;99.90
22666;DHT22;11499;49.486;11.104;2022-12-07T01:04:39;3.00;99.90
22666;DHT22;11499;49.486;11.104;2022-12-07T01:07:04;3.00;99.90
22666;DHT22;11499;49.486;11.104;2022-12-07T01:09:30;3.00;99.90
22666;DHT22;11499;49.486;11.104;2022-12-07T01:11:55;3.00;99.90
22666;DHT22;11499;49.486;11.104;2022-12-07T01:14:21;3.00;99.90
22666;DHT22;11499;49.486;11.104;2022-12-07T01:16:46;3.00;99.90
22666;DHT22;11499;49.486;11.104;2022-12-07T01:19:12;3.00;99.90
22666;DHT22;11499;49.486;11.104;2022-12-07T01:21:38;3.10;99.90
22666;DHT22;11499;49.486;11.104;2022-12-07T01:26:55;3.10;99.90
22666;DHT22;11499;49.486;11.104;2022-12-07T01:29:21;3.00;99.90
22666;DHT22;11499;49.486;11.104;2022-12-07T01:31:49;3.00;99.90
22666;DHT22;11499;49.486;11.104;2022-12-07T01:34:14;3.10;99.90
22666;DHT22;11499;49.486;11.104;2022-12-07T01:36:40;3.00;99.90
22666;DHT22;11499;49.486;11.104;2022-12-07T01:39:07;3.10;99.90
22666;DHT22;11499;49.486;11.104;2022-12-07T01:41:36;3.10;99.90
22666;DHT22;11499;49.486;11.104;2022-12-07T01:44:26;3.10;99.90
22666;DHT22;11499;49.486;11.104;2022-12-07T01:49:33;3.10;99.90
22666;DHT22;11499;49.486;11.104;2022-12-07T01:54:51;3.10;99.90
22666;DHT22;11499;49.486;11.104;2022-12-07T01:57:19;3.10;99.90
22666;DHT22;11499;49.486;11.104;2022-12-07T01:59:45;3.10;99.90
22666;DHT22;11499;49.486;11.104;2022-12-07T02:02:18;3.10;99.90
22666;DHT22;11499;49.486;11.104;2022-12-07T02:04:45;3.10;99.90
22666;DHT22;11499;49.486;11.104;2022-12-07T02:07:11;3.10;99.90
22666;DHT22;11499;49.486;11.104;2022-12-07T02:09:37;3.10;99.90
22666;DHT22;11499;49.486;11.104;2022-12-07T02:12:03;3.10;99.90
22666;DHT22;11499;49.486;11.104;2022-12-07T02:14:29;3.10;99.90
22666;DHT22;11499;49.486;11.104;2022-12-07T02:17:28;3.10;99.90
22666;DHT22;11499;49.486;11.104;2022-12-07T02:25:42;3.00;99.90
22666;DHT22;11499;49.486;11.104;2022-12-07T02:30:45;3.00;99.90
22666;DHT22;11499;49.486;11.104;2022-12-07T02:33:43;3.00;99.90
22666;DHT22;11499;49.486;11.104;2022-12-07T02:39:00;3.10;99.90
22666;DHT22;11499;49.486;11.104;2022-12-07T02:41:33;3.10;99.90
22666;DHT22;11499;49.486;11.104;2022-12-07T02:44:07;3.00;99.90
22666;DHT22;11499;49.486;11.104;2022-12-07T02:46:37;3.10;99.90
22666;DHT22;11499;49.486;11.104;2022-12-07T02:49:04;3.20;99.90
22666;DHT22;11499;49.486;11.104;2022-12-07T02:54:40;3.10;99.90
22666;DHT22;11499;49.486;11.104;2022-12-07T02:57:17;3.10;99.90
22666;DHT22;11499;49.486;11.104;2022-12-07T03:00:06;3.10;99.90
22666;DHT22;11499;49.486;11.104;2022-12-07T03:02:58;3.10;99.90
22666;DHT22;11499;49.486;11.104;2022-12-07T03:08:29;2.90;99.90
22666;DHT22;11499;49.486;11.104;2022-12-07T03:11:03;2.80;99.90
22666;DHT22;11499;49.486;11.104;2022-12-07T03:16:12;2.60;99.90
22666;DHT22;11499;49.486;11.104;2022-12-07T03:21:29;2.60;99.90
22666;DHT22;11499;49.486;11.104;2022-12-07T03:23:59;2.60;99.90
22666;DHT22;11499;49.486;11.104;2022-12-07T03:26:31;2.60;99.90
22666;DHT22;11499;49.486;11.104;2022-12-07T03:29:04;2.70;99.90
22666;DHT22;11499;49.486;11.104;2022-12-07T03:31:33;2.70;99.90
22666;DHT22;11499;49.486;11.104;2022-12-07T03:34:13;2.80;99.90
22666;DHT22;11499;49.486;11.104;2022-12-07T03:36:57;2.80;99.90
22666;DHT22;11499;49.486;11.104;2022-12-07T03:39:29;2.90;99.90
22666;DHT22;11499;49.486;11.104;2022-12-07T03:41:57;3.00;99.90
22666;DHT22;11499;49.486;11.104;2022-12-07T03:44:23;3.00;99.90
22666;DHT22;11499;49.486;11.104;2022-12-07T03:49:42;3.00;99.90
22666;DHT22;11499;49.486;11.104;2022-12-07T03:52:37;2.80;99.90
22666;DHT22;11499;49.486;11.104;2022-12-07T03:55:20;2.70;99.90
22666;DHT22;11499;49.486;11.104;2022-12-07T03:57:50;2.50;99.90
22666;DHT22;11499;49.486;11.104;2022-12-07T04:00:17;2.40;99.90
22666;DHT22;11499;49.486;11.104;2022-12-07T04:02:43;2.20;99.90
22666;DHT22;11499;49.486;11.104;2022-12-07T04:05:09;2.20;99.90
22666;DHT22;11499;49.486;11.104;2022-12-07T04:07:35;2.10;99.90
22666;DHT22;11499;49.486;11.104;2022-12-07T04:10:01;2.00;99.90
22666;DHT22;11499;49.486;11.104;2022-12-07T04:12:26;2.00;99.90
22666;DHT22;11499;49.486;11.104;2022-12-07T04:14:52;1.90;99.90
22666;DHT22;11499;49.486;11.104;2022-12-07T04:17:17;1.80;99.90
22666;DHT22;11499;49.486;11.104;2022-12-07T04:22:24;1.90;99.90
22666;DHT22;11499;49.486;11.104;2022-12-07T04:24:49;1.90;99.90
22666;DHT22;11499;49.486;11.104;2022-12-07T04:27:15;2.00;99.90
22666;DHT22;11499;49.486;11.104;2022-12-07T04:29:40;1.90;99.90
22666;DHT22;11499;49.486;11.104;2022-12-07T04:32:06;1.80;99.90
22666;DHT22;11499;49.486;11.104;2022-12-07T04:34:31;1.90;99.90
22666;DHT22;11499;49.486;11.104;2022-12-07T04:36:57;1.90;99.90
22666;DHT22;11499;49.486;11.104;2022-12-07T04:39:27;1.90;99.90
22666;DHT22;11499;49.486;11.104;2022-12-07T04:41:54;1.90;99.90
22666;DHT22;11499;49.486;11.104;2022-12-07T04:44:20;1.90;99.90
22666;DHT22;11499;49.486;11.104;2022-12-07T04:49:24;2.00;99.90
22666;DHT22;11499;49.486;11.104;2022-12-07T04:51:50;2.00;99.90
22666;DHT22;11499;49.486;11.104;2022-12-07T04:54:17;2.10;99.90
22666;DHT22;11499;49.486;11.104;2022-12-07T04:56:43;2.10;99.90
22666;DHT22;11499;49.486;11.104;2022-12-07T04:59:10;2.20;99.90
22666;DHT22;11499;49.486;11.104;2022-12-07T05:01:36;2.30;99.90
22666;DHT22;11499;49.486;11.104;2022-12-07T05:04:01;2.30;99.90
22666;DHT22;11499;49.486;11.104;2022-12-07T05:06:27;2.40;99.90
22666;DHT22;11499;49.486;11.104;2022-12-07T05:08:53;2.50;99.90
22666;DHT22;11499;49.486;11.104;2022-12-07T05:11:18;2.60;99.90
22666;DHT22;11499;49.486;11.104;2022-12-07T05:16:32;2.60;99.90
22666;DHT22;11499;49.486;11.104;2022-12-07T05:18:57;2.80;99.90
22666;DHT22;11499;49.486;11.104;2022-12-07T05:21:23;2.80;99.90
22666;DHT22;11499;49.486;11.104;2022-12-07T05:23:48;2.80;99.90
22666;DHT22;11499;49.486;11.104;2022-12-07T05:26:14;2.90;99.90
22666;DHT22;11499;49.486;11.104;2022-12-07T05:28:39;2.90;99.90
22666;DHT22;11499;49.486;11.104;2022-12-07T05:31:05;2.80;99.90
22666;DHT22;11499;49.486;11.104;2022-12-07T05:33:30;2.90;99.90
22666;DHT22;11499;49.486;11.104;2022-12-07T05:35:56;2.90;99.90
22666;DHT22;11499;49.486;11.104;2022-12-07T05:38:21;2.90;99.90
22666;DHT22;11499;49.486;11.104;2022-12-07T05:43:48;2.90;99.90
22666;DHT22;11499;49.486;11.104;2022-12-07T05:46:14;2.90;99.90
22666;DHT22;11499;49.486;11.104;2022-12-07T05:48:39;2.80;99.90
22666;DHT22;11499;49.486;11.104;2022-12-07T05:51:05;2.90;99.90
22666;DHT22;11499;49.486;11.104;2022-12-07T05:53:30;2.80;99.90
22666;DHT22;11499;49.486;11.104;2022-12-07T05:55:56;2.80;99.90
22666;DHT22;11499;49.486;11.104;2022-12-07T05:58:21;2.70;99.90
22666;DHT22;11499;49.486;11.104;2022-12-07T06:01:05;2.80;99.90
22666;DHT22;11499;49.486;11.104;2022-12-07T06:03:31;2.80;99.90
22666;DHT22;11499;49.486;11.104;2022-12-07T06:05:56;2.90;99.90
22666;DHT22;11499;49.486;11.104;2022-12-07T06:11:01;2.90;99.90
22666;DHT22;11499;49.486;11.104;2022-12-07T06:13:45;3.00;99.90
22666;DHT22;11499;49.486;11.104;2022-12-07T06:16:10;3.10;99.90
22666;DHT22;11499;49.486;11.104;2022-12-07T06:18:36;3.20;99.90
22666;DHT22;11499;49.486;11.104;2022-12-07T06:21:01;3.10;99.90
22666;DHT22;11499;49.486;11.104;2022-12-07T06:23:27;3.10;99.90
22666;DHT22;11499;49.486;11.104;2022-12-07T06:25:52;3.20;99.90
22666;DHT22;11499;49.486;11.104;2022-12-07T06:28:18;3.20;99.90
22666;DHT22;11499;49.486;11.104;2022-12-07T06:30:43;3.20;99.90
22666;DHT22;11499;49.486;11.104;2022-12-07T06:36:08;3.20;99.90
22666;DHT22;11499;49.486;11.104;2022-12-07T06:38:34;3.30;99.90
22666;DHT22;11499;49.486;11.104;2022-12-07T06:40:59;3.20;99.90
22666;DHT22;11499;49.486;11.104;2022-12-07T06:43:25;3.20;99.90
22666;DHT22;11499;49.486;11.104;2022-12-07T06:45:50;3.30;99.90
22666;DHT22;11499;49.486;11.104;2022-12-07T06:48:16;3.30;99.90
22666;DHT22;11499;49.486;11.104;2022-12-07T06:50:47;3.30;99.90
22666;DHT22;11499;49.486;11.104;2022-12-07T06:53:13;3.30;99.90
22666;DHT22;11499;49.486;11.104;2022-12-07T06:55:39;3.30;99.90
22666;DHT22;11499;49.486;11.104;2022-12-07T06:58:04;3.40;99.90
22666;DHT22;11499;49.486;11.104;2022-12-07T07:03:06;3.40;99.90
22666;DHT22;11499;49.486;11.104;2022-12-07T07:05:32;3.40;99.90
22666;DHT22;11499;49.486;11.104;2022-12-07T07:07:57;3.40;99.90
22666;DHT22;11499;49.486;11.104;2022-12-07T07:10:23;3.40;99.90
22666;DHT22;11499;49.486;11.104;2022-12-07T07:12:48;3.50;99.90
22666;DHT22;11499;49.486;11.104;2022-12-07T07:15:14;3.50;99.90
22666;DHT22;11499;49.486;11.104;2022-12-07T07:17:39;3.50;99.90
22666;DHT22;11499;49.486;11.104;2022-12-07T07:20:05;3.50;99.90
22666;DHT22;11499;49.486;11.104;2022-12-07T07:22:31;3.50;99.90
22666;DHT22;11499;49.486;11.104;2022-12-07T07:24:57;3.60;99.90
22666;DHT22;11499;49.486;11.104;2022-12-07T07:30:00;3.60;99.90
22666;DHT22;11499;49.486;11.104;2022-12-07T07:32:25;3.70;99.90
22666;DHT22;11499;49.486;11.104;2022-12-07T07:34:51;3.80;99.90
22666;DHT22;11499;49.486;11.104;2022-12-07T07:37:16;3.70;99.90
22666;DHT22;11499;49.486;11.104;2022-12-07T07:39:42;3.80;99.90
22666;DHT22;11499;49.486;11.104;2022-12-07T07:42:07;3.80;99.90
22666;DHT22;11499;49.486;11.104;2022-12-07T07:44:34;3.80;99.90
22666;DHT22;11499;49.486;11.104;2022-12-07T07:47:00;3.90;99.90
22666;DHT22;11499;49.486;11.104;2022-12-07T07:49:26;3.90;99.90
22666;DHT22;11499;49.486;11.104;2022-12-07T07:51:51;3.90;99.90
22666;DHT22;11499;49.486;11.104;2022-12-07T07:57:27;4.00;99.90
22666;DHT22;11499;49.486;11.104;2022-12-07T07:59:52;4.00;99.90
22666;DHT22;11499;49.486;11.104;2022-12-07T08:02:19;4.20;99.90
22666;DHT22;11499;49.486;11.104;2022-12-07T08:04:46;4.20;99.90
22666;DHT22;11499;49.486;11.104;2022-12-07T08:07:12;4.30;99.90
22666;DHT22;11499;49.486;11.104;2022-12-07T08:09:38;4.30;99.90
22666;DHT22;11499;49.486;11.104;2022-12-07T08:12:04;4.10;99.90
22666;DHT22;11499;49.486;11.104;2022-12-07T08:14:30;3.80;99.90
22666;DHT22;11499;49.486;11.104;2022-12-07T08:16:55;3.90;99.90
22666;DHT22;11499;49.486;11.104;2022-12-07T08:19:21;3.80;99.90
22666;DHT22;11499;49.486;11.104;2022-12-07T08:24:26;3.70;99.90
22666;DHT22;11499;49.486;11.104;2022-12-07T08:26:52;3.70;99.90
22666;DHT22;11499;49.486;11.104;2022-12-07T08:29:17;3.60;99.90
22666;DHT22;11499;49.486;11.104;2022-12-07T08:31:43;3.70;99.90
22666;DHT22;11499;49.486;11.104;2022-12-07T08:34:10;3.60;99.90
22666;DHT22;11499;49.486;11.104;2022-12-07T08:36:36;3.60;99.90
22666;DHT22;11499;49.486;11.104;2022-12-07T08:39:02;3.70;99.90
22666;DHT22;11499;49.486;11.104;2022-12-07T08:41:28;3.70;99.90
22666;DHT22;11499;49.486;11.104;2022-12-07T08:43:53;3.70;99.90
22666;DHT22;11499;49.486;11.104;2022-12-07T08:46:23;3.70;99.90
22666;DHT22;11499;49.486;11.104;2022-12-07T08:48:57;3.80;99.90
22666;DHT22;11499;49.486;11.104;2022-12-07T08:51:24;3.80;99.90
22666;DHT22;11499;49.486;11.104;2022-12-07T08:56:27;3.80;99.90
22666;DHT22;11499;49.486;11.104;2022-12-07T08:58:53;3.70;99.90
22666;DHT22;11499;49.486;11.104;2022-12-07T09:01:18;3.80;99.90
22666;DHT22;11499;49.486;11.104;2022-12-07T09:03:44;3.80;99.90
22666;DHT22;11499;49.486;11.104;2022-12-07T09:06:09;3.80;99.90
22666;DHT22;11499;49.486;11.104;2022-12-07T09:08:40;3.70;99.90
22666;DHT22;11499;49.486;11.104;2022-12-07T09:11:06;3.60;99.90
22666;DHT22;11499;49.486;11.104;2022-12-07T09:13:32;3.70;99.90
22666;DHT22;11499;49.486;11.104;2022-12-07T09:15:57;3.70;99.90
22666;DHT22;11499;49.486;11.104;2022-12-07T09:18:23;3.70;99.90
22666;DHT22;11499;49.486;11.104;2022-12-07T09:23:38;3.70;99.90
22666;DHT22;11499;49.486;11.104;2022-12-07T09:26:04;3.80;99.90
22666;DHT22;11499;49.486;11.104;2022-12-07T09:28:30;3.80;99.90
22666;DHT22;11499;49.486;11.104;2022-12-07T09:30:56;3.80;99.90
22666;DHT22;11499;49.486;11.104;2022-12-07T09:33:21;3.60;99.90
22666;DHT22;11499;49.486;11.104;2022-12-07T09:35:48;3.70;99.90
22666;DHT22;11499;49.486;11.104;2022-12-07T09:38:14;3.60;99.90
22666;DHT22;11499;49.486;11.104;2022-12-07T09:40:41;3.70;99.90
22666;DHT22;11499;49.486;11.104;2022-12-07T09:43:19;3.80;99.90
22666;DHT22;11499;49.486;11.104;2022-12-07T09:45:47;3.70;99.90
22666;DHT22;11499;49.486;11.104;2022-12-07T09:50:25;3.60;99.90
22666;DHT22;11499;49.486;11.104;2022-12-07T09:52:52;3.70;99.90
22666;DHT22;11499;49.486;11.104;2022-12-07T09:55:28;3.70;99.90
22666;DHT22;11499;49.486;11.104;2022-12-07T09:57:54;3.50;99.90
22666;DHT22;11499;49.486;11.104;2022-12-07T10:00:22;3.60;99.90
22666;DHT22;11499;49.486;11.104;2022-12-07T10:05:32;3.80;99.90
22666;DHT22;11499;49.486;11.104;2022-12-07T10:07:59;3.70;99.90
22666;DHT22;11499;49.486;11.104;2022-12-07T10:10:31;3.70;99.90
22666;DHT22;11499;49.486;11.104;2022-12-07T10:13:08;3.70;99.90
22666;DHT22;11499;49.486;11.104;2022-12-07T10:17:39;3.80;99.90
22666;DHT22;11499;49.486;11.104;2022-12-07T10:22:38;4.00;99.90
22666;DHT22;11499;49.486;11.104;2022-12-07T10:25:18;4.10;99.90
22666;DHT22;11499;49.486;11.104;2022-12-07T10:27:58;4.10;99.90
22666;DHT22;11499;49.486;11.104;2022-12-07T10:30:24;4.10;99.90
22666;DHT22;11499;49.486;11.104;2022-12-07T10:32:49;4.10;99.90
22666;DHT22;11499;49.486;11.104;2022-12-07T10:35:23;4.10;99.90
22666;DHT22;11499;49.486;11.104;2022-12-07T10:37:50;4.10;99.90
22666;DHT22;11499;49.486;11.104;2022-12-07T10:45:29;4.20;99.90
22666;DHT22;11499;49.486;11.104;2022-12-07T10:48:04;4.20;99.90
22666;DHT22;11499;49.486;11.104;2022-12-07T10:53:46;4.10;99.90
22666;DHT22;11499;49.486;11.104;2022-12-07T10:56:34;4.10;99.90
22666;DHT22;11499;49.486;11.104;2022-12-07T10:59:24;4.00;99.90
22666;DHT22;11499;49.486;11.104;2022-12-07T11:02:09;4.00;99.90
22666;DHT22;11499;49.486;11.104;2022-12-07T11:04:43;4.00;99.90
22666;DHT22;11499;49.486;11.104;2022-12-07T11:38:14;4.20;99.90
22666;DHT22;11499;49.486;11.104;2022-12-07T11:40:40;4.10;99.90
22666;DHT22;11499;49.486;11.104;2022-12-07T11:43:17;4.10;99.90
22666;DHT22;11499;49.486;11.104;2022-12-07T11:45:47;4.30;99.90
22666;DHT22;11499;49.486;11.104;2022-12-07T11:48:22;4.40;99.90
22666;DHT22;11499;49.486;11.104;2022-12-07T11:50:53;4.30;99.90
22666;DHT22;11499;49.486;11.104;2022-12-07T11:53:26;4.20;99.90
22666;DHT22;11499;49.486;11.104;2022-12-07T11:59:29;4.20;99.90
22666;DHT22;11499;49.486;11.104;2022-12-07T12:02:13;4.30;99.90
22666;DHT22;11499;49.486;11.104;2022-12-07T12:04:58;4.30;99.90
22666;DHT22;11499;49.486;11.104;2022-12-07T12:07:26;4.30;99.90
22666;DHT22;11499;49.486;11.104;2022-12-07T12:09:59;4.30;99.90
22666;DHT22;11499;49.486;11.104;2022-12-07T12:12:55;4.20;99.90
22666;DHT22;11499;49.486;11.104;2022-12-07T12:15:30;4.30;99.90
22666;DHT22;11499;49.486;11.104;2022-12-07T12:20:35;4.30;99.90
22666;DHT22;11499;49.486;11.104;2022-12-07T12:23:19;4.20;99.90
22666;DHT22;11499;49.486;11.104;2022-12-07T12:25:51;4.20;99.90
22666;DHT22;11499;49.486;11.104;2022-12-07T12:34:30;4.30;99.90
22666;DHT22;11499;49.486;11.104;2022-12-07T12:36:56;4.20;99.90
22666;DHT22;11499;49.486;11.104;2022-12-07T12:39:22;4.20;99.90
22666;DHT22;11499;49.486;11.104;2022-12-07T12:46:58;4.10;99.90
22666;DHT22;11499;49.486;11.104;2022-12-07T12:54:25;4.30;99.90
22666;DHT22;11499;49.486;11.104;2022-12-07T12:58:40;4.30;99.90
22666;DHT22;11499;49.486;11.104;2022-12-07T13:03:57;4.20;99.90
22666;DHT22;11499;49.486;11.104;2022-12-07T13:08:53;4.20;99.90
22666;DHT22;11499;49.486;11.104;2022-12-07T13:11:31;4.10;99.90
22666;DHT22;11499;49.486;11.104;2022-12-07T13:15:02;4.10;99.90
22666;DHT22;11499;49.486;11.104;2022-12-07T13:20:07;4.10;99.90
22666;DHT22;11499;49.486;11.104;2022-12-07T13:25:31;4.10;99.90
22666;DHT22;11499;49.486;11.104;2022-12-07T13:28:09;4.10;99.90
22666;DHT22;11499;49.486;11.104;2022-12-07T13:30:48;4.10;99.90
22666;DHT22;11499;49.486;11.104;2022-12-07T13:33:17;4.10;99.90
22666;DHT22;11499;49.486;11.104;2022-12-07T13:35:43;4.10;99.90
22666;DHT22;11499;49.486;11.104;2022-12-07T13:38:25;4.10;99.90
22666;DHT22;11499;49.486;11.104;2022-12-07T13:41:25;4.20;99.90
22666;DHT22;11499;49.486;11.104;2022-12-07T13:44:13;4.20;99.90
22666;DHT22;11499;49.486;11.104;2022-12-07T13:51:50;4.10;99.90
22666;DHT22;11499;49.486;11.104;2022-12-07T13:54:16;4.00;99.90
22666;DHT22;11499;49.486;11.104;2022-12-07T13:56:42;3.90;99.90
22666;DHT22;11499;49.486;11.104;2022-12-07T13:59:19;3.90;99.90
22666;DHT22;11499;49.486;11.104;2022-12-07T14:01:47;4.00;99.90
22666;DHT22;11499;49.486;11.104;2022-12-07T14:04:39;4.00;99.90
22666;DHT22;11499;49.486;11.104;2022-12-07T14:07:25;3.90;99.90
22666;DHT22;11499;49.486;11.104;2022-12-07T14:09:55;3.90;99.90
22666;DHT22;11499;49.486;11.104;2022-12-07T14:12:22;4.00;99.90
22666;DHT22;11499;49.486;11.104;2022-12-07T14:14:48;4.10;99.90
22666;DHT22;11499;49.486;11.104;2022-12-07T14:19:59;4.10;99.90
22666;DHT22;11499;49.486;11.104;2022-12-07T14:22:34;4.10;99.90
22666;DHT22;11499;49.486;11.104;2022-12-07T14:25:18;4.20;99.90
22666;DHT22;11499;49.486;11.104;2022-12-07T14:27:56;4.30;99.90
22666;DHT22;11499;49.486;11.104;2022-12-07T14:30:28;4.20;99.90
22666;DHT22;11499;49.486;11.104;2022-12-07T14:32:59;4.20;99.90
22666;DHT22;11499;49.486;11.104;2022-12-07T14:35:26;4.20;99.90
22666;DHT22;11499;49.486;11.104;2022-12-07T14:37:51;4.00;99.90
22666;DHT22;11499;49.486;11.104;2022-12-07T14:40:23;4.00;99.90
22666;DHT22;11499;49.486;11.104;2022-12-07T14:42:51;4.00;99.90
22666;DHT22;11499;49.486;11.104;2022-12-07T14:46:22;3.60;99.90
22666;DHT22;11499;49.486;11.104;2022-12-07T14:48:47;3.30;99.90
22666;DHT22;11499;49.486;11.104;2022-12-07T14:51:13;3.20;99.90
22666;DHT22;11499;49.486;11.104;2022-12-07T14:53:49;3.20;99.90
22666;DHT22;11499;49.486;11.104;2022-12-07T14:56:15;3.20;99.90
22666;DHT22;11499;49.486;11.104;2022-12-07T14:58:41;3.10;99.90
22666;DHT22;11499;49.486;11.104;2022-12-07T15:01:06;2.90;99.90
22666;DHT22;11499;49.486;11.104;2022-12-07T15:03:32;2.90;99.90
22666;DHT22;11499;49.486;11.104;2022-12-07T15:06:00;2.90;99.90
22666;DHT22;11499;49.486;11.104;2022-12-07T15:08:26;2.80;99.90
22666;DHT22;11499;49.486;11.104;2022-12-07T15:12:29;2.90;99.90
22666;DHT22;11499;49.486;11.104;2022-12-07T15:14:55;2.90;99.90
22666;DHT22;11499;49.486;11.104;2022-12-07T15:17:20;2.90;99.90
22666;DHT22;11499;49.486;11.104;2022-12-07T15:19:45;2.90;99.90
22666;DHT22;11499;49.486;11.104;2022-12-07T15:22:11;3.00;99.90
22666;DHT22;11499;49.486;11.104;2022-12-07T15:24:37;3.00;99.90
22666;DHT22;11499;49.486;11.104;2022-12-07T15:27:03;3.10;99.90
22666;DHT22;11499;49.486;11.104;2022-12-07T15:29:29;3.20;99.90
22666;DHT22;11499;49.486;11.104;2022-12-07T15:31:55;3.20;99.90
22666;DHT22;11499;49.486;11.104;2022-12-07T15:37:21;3.30;99.90
22666;DHT22;11499;49.486;11.104;2022-12-07T15:39:46;3.40;99.90
22666;DHT22;11499;49.486;11.104;2022-12-07T15:42:12;3.40;99.90
22666;DHT22;11499;49.486;11.104;2022-12-07T15:44:37;3.40;99.90
22666;DHT22;11499;49.486;11.104;2022-12-07T15:47:22;3.40;99.90
22666;DHT22;11499;49.486;11.104;2022-12-07T15:49:47;3.40;99.90
22666;DHT22;11499;49.486;11.104;2022-12-07T15:52:13;3.40;99.90
22666;DHT22;11499;49.486;11.104;2022-12-07T15:54:38;3.50;99.90
22666;DHT22;11499;49.486;11.104;2022-12-07T15:57:04;3.60;99.90
22666;DHT22;11499;49.486;11.104;2022-12-07T15:59:30;3.70;99.90
22666;DHT22;11499;49.486;11.104;2022-12-07T16:03:05;3.80;99.90
22666;DHT22;11499;49.486;11.104;2022-12-07T16:05:31;3.70;99.90
22666;DHT22;11499;49.486;11.104;2022-12-07T16:07:56;3.60;99.90
22666;DHT22;11499;49.486;11.104;2022-12-07T16:10:22;3.50;99.90
22666;DHT22;11499;49.486;11.104;2022-12-07T16:12:47;3.50;99.90
22666;DHT22;11499;49.486;11.104;2022-12-07T16:15:13;3.50;99.90
22666;DHT22;11499;49.486;11.104;2022-12-07T16:17:39;3.50;99.90
22666;DHT22;11499;49.486;11.104;2022-12-07T16:20:05;3.50;99.90
22666;DHT22;11499;49.486;11.104;2022-12-07T16:22:30;3.60;99.90
22666;DHT22;11499;49.486;11.104;2022-12-07T16:24:56;3.70;99.90
22666;DHT22;11499;49.486;11.104;2022-12-07T16:30:34;3.80;99.90
22666;DHT22;11499;49.486;11.104;2022-12-07T16:32:59;3.90;99.90
22666;DHT22;11499;49.486;11.104;2022-12-07T16:35:25;3.90;99.90
22666;DHT22;11499;49.486;11.104;2022-12-07T16:37:50;4.00;99.90
22666;DHT22;11499;49.486;11.104;2022-12-07T16:40:16;4.00;99.90
22666;DHT22;11499;49.486;11.104;2022-12-07T16:42:41;4.00;99.90
22666;DHT22;11499;49.486;11.104;2022-12-07T16:45:07;3.90;99.90
22666;DHT22;11499;49.486;11.104;2022-12-07T16:47:33;3.90;99.90
22666;DHT22;11499;49.486;11.104;2022-12-07T16:49:58;3.90;99.90
22666;DHT22;11499;49.486;11.104;2022-12-07T16:52:24;3.90;99.90
22666;DHT22;11499;49.486;11.104;2022-12-07T16:57:49;3.80;99.90
22666;DHT22;11499;49.486;11.104;2022-12-07T17:00:15;3.80;99.90
22666;DHT22;11499;49.486;11.104;2022-12-07T17:02:41;3.70;99.90
22666;DHT22;11499;49.486;11.104;2022-12-07T17:05:06;3.70;99.90
22666;DHT22;11499;49.486;11.104;2022-12-07T17:07:33;3.70;99.90
22666;DHT22;11499;49.486;11.104;2022-12-07T17:09:59;3.70;99.90
22666;DHT22;11499;49.486;11.104;2022-12-07T17:12:24;3.70;99.90
22666;DHT22;11499;49.486;11.104;2022-12-07T17:14:51;3.70;99.90
22666;DHT22;11499;49.486;11.104;2022-12-07T17:17:36;3.70;99.90
22666;DHT22;11499;49.486;11.104;2022-12-07T17:20:02;3.80;99.90
22666;DHT22;11499;49.486;11.104;2022-12-07T17:24:47;3.80;99.90
22666;DHT22;11499;49.486;11.104;2022-12-07T17:27:12;3.90;99.90
22666;DHT22;11499;49.486;11.104;2022-12-07T17:29:38;3.90;99.90
22666;DHT22;11499;49.486;11.104;2022-12-07T17:32:04;4.00;99.90
22666;DHT22;11499;49.486;11.104;2022-12-07T17:34:30;4.00;99.90
22666;DHT22;11499;49.486;11.104;2022-12-07T17:36:55;4.00;99.90
22666;DHT22;11499;49.486;11.104;2022-12-07T17:39:21;4.00;99.90
22666;DHT22;11499;49.486;11.104;2022-12-07T17:41:46;3.90;99.90
22666;DHT22;11499;49.486;11.104;2022-12-07T17:44:30;3.90;99.90
22666;DHT22;11499;49.486;11.104;2022-12-07T17:46:56;3.90;99.90
22666;DHT22;11499;49.486;11.104;2022-12-07T17:51:15;3.80;99.90
22666;DHT22;11499;49.486;11.104;2022-12-07T17:53:59;3.80;99.90
22666;DHT22;11499;49.486;11.104;2022-12-07T17:56:25;3.80;99.90
22666;DHT22;11499;49.486;11.104;2022-12-07T17:58:50;3.80;99.90
22666;DHT22;11499;49.486;11.104;2022-12-07T18:01:16;3.70;99.90
22666;DHT22;11499;49.486;11.104;2022-12-07T18:03:41;3.70;99.90
22666;DHT22;11499;49.486;11.104;2022-12-07T18:06:07;3.70;99.90
22666;DHT22;11499;49.486;11.104;2022-12-07T18:08:34;3.70;99.90
22666;DHT22;11499;49.486;11.104;2022-12-07T18:11:00;3.60;99.90
22666;DHT22;11499;49.486;11.104;2022-12-07T18:13:26;3.70;99.90
22666;DHT22;11499;49.486;11.104;2022-12-07T18:18:04;3.70;99.90
22666;DHT22;11499;49.486;11.104;2022-12-07T18:20:29;3.70;99.90
22666;DHT22;11499;49.486;11.104;2022-12-07T18:22:55;3.70;99.90
22666;DHT22;11499;49.486;11.104;2022-12-07T18:25:21;3.80;99.90
22666;DHT22;11499;49.486;11.104;2022-12-07T18:27:47;3.90;99.90
22666;DHT22;11499;49.486;11.104;2022-12-07T18:30:12;3.90;99.90
22666;DHT22;11499;49.486;11.104;2022-12-07T18:32:38;3.80;99.90
22666;DHT22;11499;49.486;11.104;2022-12-07T18:35:03;3.90;99.90
22666;DHT22;11499;49.486;11.104;2022-12-07T18:37:29;3.90;99.90
22666;DHT22;11499;49.486;11.104;2022-12-07T18:39:56;3.90;99.90
22666;DHT22;11499;49.486;11.104;2022-12-07T18:45:10;3.90;99.90
22666;DHT22;11499;49.486;11.104;2022-12-07T18:47:36;4.00;99.90